TAP971 LEBB-LPPT
Flight info
| Callsign | TAP971 |
|---|---|
| Flight time | N/A |
| Altitude | 37000 |
| Route | AMTOS L14 NEA DCT ARDID DCT INBOM |
| Aircraft | A320/M-SDE3FGHIRWY/LB1 |
Departure
| Time | 2025-12-29 16:23 |
|---|---|
| Airport | Bilbao Airport (LEBB) |
Arrival
| Time | N/A |
|---|---|
| Airport | Lisbon Humberto Delgado Airport (LPPT) |
| Time | Latitude | Longitude | Altitude | Speed | Heading |
|---|---|---|---|---|---|
| 2025-12-29 16:22 | 43.32186 | -2.96597 | 2025 ft | 184 kts | 301° |
| 2025-12-29 16:23 | 43.34214 | -2.99302 | 2739 ft | 223 kts | 316° |
| 2025-12-29 16:23 | 43.36663 | -3.02543 | 3997 ft | 258 kts | 315° |
| 2025-12-29 16:24 | 43.39271 | -3.06038 | 5945 ft | 267 kts | 316° |
| 2025-12-29 16:24 | 43.42708 | -3.07938 | 7698 ft | 280 kts | 4° |
| 2025-12-29 16:25 | 43.46081 | -3.05492 | 9513 ft | 287 kts | 54° |
| 2025-12-29 16:25 | 43.46928 | -3.00242 | 11245 ft | 290 kts | 104° |
| 2025-12-29 16:25 | 43.46061 | -2.97750 | 12091 ft | 292 kts | 129° |
| 2025-12-29 16:26 | 43.40311 | -2.94704 | 13774 ft | 331 kts | 169° |
| 2025-12-29 16:27 | 43.35570 | -2.93670 | 14792 ft | 351 kts | 170° |
| 2025-12-29 16:27 | 43.30652 | -2.93712 | 16184 ft | 360 kts | 192° |
| 2025-12-29 16:28 | 43.26116 | -2.96705 | 17559 ft | 371 kts | 214° |
| 2025-12-29 16:28 | 43.21888 | -3.00857 | 18823 ft | 378 kts | 213° |
| 2025-12-29 16:29 | 43.17557 | -3.05079 | 19984 ft | 383 kts | 213° |
| 2025-12-29 16:29 | 43.13211 | -3.09301 | 21177 ft | 387 kts | 213° |
| 2025-12-29 16:29 | 43.10997 | -3.11447 | 21738 ft | 390 kts | 213° |
| 2025-12-29 16:30 | 43.04292 | -3.17934 | 23332 ft | 399 kts | 212° |
| 2025-12-29 16:31 | 42.99706 | -3.22370 | 24272 ft | 405 kts | 212° |
| 2025-12-29 16:33 | 42.80639 | -3.40043 | 27517 ft | 425 kts | 211° |
| 2025-12-29 16:35 | 42.60618 | -3.58470 | 30379 ft | 445 kts | 211° |
| 2025-12-29 16:37 | 42.39963 | -3.77343 | 33047 ft | 448 kts | 213° |
| 2025-12-29 16:39 | 42.19295 | -3.96058 | 35587 ft | 447 kts | 213° |
| 2025-12-29 16:41 | 42.00370 | -4.17173 | 37156 ft | 448 kts | 243° |
| 2025-12-29 16:43 | 41.89003 | -4.47014 | 37140 ft | 448 kts | 243° |
| 2025-12-29 16:45 | 41.77564 | -4.76709 | 37169 ft | 448 kts | 243° |
| 2025-12-29 16:47 | 41.66040 | -5.06324 | 37164 ft | 449 kts | 244° |
| 2025-12-29 16:49 | 41.54477 | -5.35716 | 37161 ft | 446 kts | 244° |
| 2025-12-29 16:51 | 41.42855 | -5.64971 | 37172 ft | 446 kts | 243° |
| 2025-12-29 16:52 | 41.32671 | -5.90365 | 37171 ft | 445 kts | 244° |
| 2025-12-29 16:55 | 41.19502 | -6.22887 | 37174 ft | 444 kts | 244° |
| 2025-12-29 16:57 | 41.05222 | -6.49714 | 37182 ft | 446 kts | 236° |
| 2025-12-29 16:59 | 40.90334 | -6.75944 | 37201 ft | 445 kts | 236° |
| 2025-12-29 17:01 | 40.75428 | -7.01991 | 37201 ft | 444 kts | 237° |
| 2025-12-29 17:03 | 40.61130 | -7.26777 | 37201 ft | 442 kts | 237° |
| 2025-12-29 17:05 | 40.46227 | -7.52385 | 37201 ft | 440 kts | 237° |
| 2025-12-29 17:07 | 40.31333 | -7.77773 | 37206 ft | 438 kts | 237° |
| 2025-12-29 17:09 | 40.16431 | -8.02963 | 37194 ft | 437 kts | 237° |
| 2025-12-29 17:11 | 40.01094 | -8.27547 | 37193 ft | 446 kts | 221° |
| 2025-12-29 17:13 | 39.76043 | -8.33898 | 37178 ft | 467 kts | 192° |
| 2025-12-29 17:15 | 39.57656 | -8.52825 | 37165 ft | 440 kts | 224° |
| 2025-12-29 17:17 | 39.36471 | -8.69647 | 37170 ft | 447 kts | 217° |
| 2025-12-29 17:19 | 39.17534 | -8.89478 | 37170 ft | 437 kts | 228° |
| 2025-12-29 17:20 | 39.01580 | -9.07621 | 37172 ft | 437 kts | 227° |
| 2025-12-29 17:23 | 38.73867 | -9.23336 | 34494 ft | 397 kts | 218° |
| 2025-12-29 17:25 | 38.65434 | -9.41645 | 30292 ft | 339 kts | 278° |
| 2025-12-29 17:27 | 38.69736 | -9.68905 | 23666 ft | 355 kts | 324° |
| 2025-12-29 17:27 | 38.74513 | -9.70579 | 20743 ft | 377 kts | 358° |
| 2025-12-29 17:28 | 38.77183 | -9.70511 | 19184 ft | 387 kts | 359° |
| 2025-12-29 17:28 | 38.82671 | -9.70518 | 15724 ft | 404 kts | 359° |
| 2025-12-29 17:29 | 38.88086 | -9.70583 | 14657 ft | 361 kts | 359° |